createdAt,value
2018-07-16T00:02:17.975Z,98027.19
2018-07-16T00:04:47.698Z,98038.08
2018-07-16T00:07:17.278Z,98041.30
2018-07-16T00:09:48.070Z,98034.97
2018-07-16T00:15:42.101Z,98038.34
2018-07-16T00:18:18.687Z,98035.54
2018-07-16T00:21:24.628Z,98034.64
2018-07-16T00:24:02.930Z,98035.54
2018-07-16T00:26:37.511Z,98038.19
2018-07-16T00:29:09.030Z,98037.02
2018-07-16T00:31:39.332Z,98035.61
2018-07-16T00:34:09.213Z,98038.61
2018-07-16T00:36:38.783Z,98034.97
2018-07-16T00:39:08.469Z,98039.52
2018-07-16T00:41:38.599Z,98034.50
2018-07-16T00:44:08.368Z,98031.10
2018-07-16T00:46:38.501Z,98029.45
2018-07-16T00:49:08.245Z,98025.20
2018-07-16T00:51:38.127Z,98023.09
2018-07-16T00:54:07.993Z,98032.16
2018-07-16T00:56:37.814Z,98023.30
2018-07-16T00:59:07.746Z,98022.17
2018-07-16T01:01:38.838Z,98021.37
2018-07-16T01:04:08.463Z,98023.34
2018-07-16T01:06:38.352Z,98018.73
2018-07-16T01:09:08.313Z,98027.84
2018-07-16T01:11:39.534Z,98025.63
2018-07-16T01:14:09.066Z,98021.59
2018-07-16T01:17:40.155Z,98013.81
2018-07-16T01:23:10.793Z,98016.13
2018-07-16T01:25:40.767Z,98011.05
2018-07-16T01:28:10.580Z,98012.01
2018-07-16T01:30:40.291Z,98009.67
2018-07-16T01:33:10.476Z,98015.57
2018-07-16T01:35:44.032Z,98018.58
2018-07-16T01:38:14.179Z,98019.77
2018-07-16T01:40:44.032Z,98016.88
2018-07-16T01:48:26.459Z,98021.27
2018-07-16T01:50:56.236Z,98025.52
2018-07-16T01:53:27.253Z,98024.59
2018-07-16T01:55:56.820Z,98029.19
2018-07-16T01:58:26.341Z,98028.83
2018-07-16T02:03:37.346Z,98030.27
2018-07-16T02:06:06.949Z,98033.66
2018-07-16T02:08:37.198Z,98034.65
2018-07-16T02:11:07.084Z,98034.50
2018-07-16T02:13:36.782Z,98023.61
2018-07-16T02:16:06.314Z,98027.95
2018-07-16T02:21:43.773Z,98024.52
2018-07-16T02:24:13.276Z,98024.56
2018-07-16T02:26:42.755Z,98023.36
2018-07-16T02:29:14.502Z,98027.69
2018-07-16T02:31:47.204Z,98023.36
2018-07-16T02:34:16.830Z,98025.41
2018-07-16T02:36:46.775Z,98032.70
2018-07-16T02:39:16.770Z,98019.13
2018-07-16T02:41:46.249Z,98025.25
2018-07-16T02:44:15.878Z,98022.28
2018-07-16T02:46:46.721Z,98026.52
2018-07-16T02:49:16.392Z,98026.94
2018-07-16T02:51:45.939Z,98029.94
2018-07-16T02:54:16.830Z,98032.06
2018-07-16T02:57:20.101Z,98033.75
2018-07-16T02:59:50.032Z,98037.35
2018-07-16T03:02:21.461Z,98038.25
2018-07-16T03:05:19.890Z,98038.94
2018-07-16T03:07:50.279Z,98036.66
2018-07-16T03:10:53.868Z,98040.77
2018-07-16T03:13:23.872Z,98034.98
2018-07-16T03:15:53.468Z,98029.75
2018-07-16T03:18:24.496Z,98035.81
2018-07-16T03:20:54.082Z,98035.23
2018-07-16T03:23:23.663Z,98034.13
2018-07-16T03:26:00.267Z,98032.81
2018-07-16T03:28:29.911Z,98020.35
2018-07-16T03:30:59.653Z,98018.50
2018-07-16T03:33:29.188Z,98013.79
2018-07-16T03:36:00.034Z,97997.58
2018-07-16T03:38:29.865Z,97995.51
2018-07-16T03:40:59.372Z,98007.19
2018-07-16T03:43:28.836Z,98008.77
2018-07-16T03:46:09.979Z,98019.19
2018-07-16T03:48:39.810Z,98018.32
2018-07-16T03:51:09.372Z,98020.72
2018-07-16T03:53:42.283Z,98019.13
2018-07-16T03:56:12.059Z,98022.61
2018-07-16T03:58:41.912Z,98022.61
2018-07-16T04:01:12.872Z,98021.41
2018-07-16T04:06:25.486Z,98013.00
2018-07-16T04:11:51.323Z,98007.15
2018-07-16T04:14:22.191Z,98007.78
2018-07-16T04:17:47.361Z,98006.19
2018-07-16T04:20:18.479Z,98008.62
2018-07-16T04:22:48.788Z,98010.16
2018-07-16T04:25:21.150Z,98008.08
2018-07-16T04:27:56.101Z,98009.83
2018-07-16T04:30:25.534Z,98015.53
2018-07-16T04:32:57.459Z,98021.50
2018-07-16T04:35:27.245Z,98020.81
2018-07-16T04:37:56.769Z,98016.10
2018-07-16T04:43:22.211Z,98010.13
2018-07-16T04:48:20.690Z,98001.81
2018-07-16T04:50:50.366Z,97998.55
2018-07-16T04:53:20.122Z,98003.60
2018-07-16T04:59:32.266Z,98017.78
2018-07-16T05:02:21.956Z,98013.98
2018-07-16T05:04:51.909Z,98013.96
2018-07-16T05:07:21.667Z,98016.12
2018-07-16T05:09:51.854Z,98007.43
2018-07-16T05:12:21.943Z,98007.03
2018-07-16T05:14:56.402Z,98008.55
2018-07-16T05:17:27.265Z,98011.73
2018-07-16T05:19:57.115Z,98011.73
2018-07-16T05:22:26.832Z,98013.53
2018-07-16T05:24:58.224Z,98015.98
2018-07-16T05:27:28.071Z,98012.41
2018-07-16T05:29:58.625Z,98010.96
2018-07-16T05:32:36.506Z,98009.07
2018-07-16T05:35:06.090Z,98004.73
2018-07-16T05:37:39.599Z,97999.16
2018-07-16T05:40:10.606Z,97998.92
2018-07-16T05:42:40.221Z,98005.42
2018-07-16T05:45:09.681Z,98006.06
2018-07-16T05:47:39.543Z,98003.13
2018-07-16T05:50:09.211Z,98004.56
2018-07-16T05:52:38.753Z,98004.30
2018-07-16T05:55:08.293Z,98003.48
2018-07-16T05:57:48.354Z,98008.17
2018-07-16T06:00:17.878Z,98001.39
2018-07-16T06:02:47.776Z,98010.23
2018-07-16T06:05:18.629Z,98010.36
2018-07-16T06:07:48.489Z,98013.27
2018-07-16T06:10:18.133Z,98009.76
2018-07-16T06:12:53.448Z,98005.23
2018-07-16T06:15:24.959Z,98007.01
2018-07-16T06:17:58.694Z,98006.29
2018-07-16T06:20:28.690Z,98010.59
2018-07-16T06:22:59.540Z,98007.27
2018-07-16T06:25:29.094Z,98009.13
2018-07-16T06:27:58.698Z,98014.88
2018-07-16T06:30:28.511Z,98016.28
2018-07-16T06:32:58.626Z,98014.17
2018-07-16T06:35:38.357Z,98007.06
2018-07-16T06:38:11.345Z,98018.95
2018-07-16T06:40:41.215Z,98013.42
2018-07-16T06:43:10.935Z,98019.50
2018-07-16T06:45:41.471Z,98015.63
2018-07-16T06:48:16.169Z,98021.37
2018-07-16T06:50:46.198Z,98019.30
2018-07-16T06:53:17.085Z,98021.96
2018-07-16T06:55:48.515Z,98021.77
2018-07-16T06:58:18.728Z,98013.53
2018-07-16T07:00:48.799Z,98016.27
2018-07-16T07:03:18.670Z,98015.66
2018-07-16T07:05:49.412Z,98013.88
2018-07-16T07:08:20.285Z,98013.95
2018-07-16T07:10:52.491Z,98015.98
2018-07-16T07:13:33.149Z,98015.28
2018-07-16T07:16:08.342Z,98013.98
2018-07-16T07:18:38.055Z,98010.03
2018-07-16T07:21:07.941Z,98008.49
2018-07-16T07:23:37.651Z,98005.85
2018-07-16T07:26:07.125Z,98000.88
2018-07-16T07:28:36.581Z,98002.89
2018-07-16T07:31:06.513Z,98001.41
2018-07-16T07:33:36.148Z,97998.94
2018-07-16T07:36:05.908Z,97992.95
2018-07-16T07:38:36.591Z,97996.63
2018-07-16T07:42:45.582Z,97992.97
2018-07-16T07:45:15.711Z,97990.82
2018-07-16T07:47:45.255Z,97990.98
2018-07-16T07:50:14.586Z,97990.00
2018-07-16T07:52:44.433Z,97989.36
2018-07-16T07:55:14.313Z,97986.67
2018-07-16T07:57:43.518Z,97987.84
2018-07-16T08:00:14.590Z,97982.39
2018-07-16T08:02:45.146Z,97982.21
2018-07-16T08:05:14.854Z,97986.34
2018-07-16T08:07:44.565Z,97983.03
2018-07-16T08:10:14.810Z,97985.38
2018-07-16T08:12:44.461Z,97979.55
2018-07-16T08:15:16.583Z,97976.39
2018-07-16T08:17:46.033Z,97981.67
2018-07-16T08:20:15.522Z,97980.16
2018-07-16T08:22:45.353Z,97982.16
2018-07-16T08:25:14.820Z,97977.97
2018-07-16T08:27:44.606Z,97968.91
2018-07-16T08:30:19.497Z,97970.54
2018-07-16T08:32:49.145Z,97970.25
2018-07-16T08:35:18.702Z,97974.97
2018-07-16T08:37:48.822Z,97971.91
2018-07-16T08:40:18.683Z,97980.08
2018-07-16T08:45:42.106Z,97971.95
2018-07-16T08:48:11.924Z,97973.74
2018-07-16T08:50:41.470Z,97972.56
2018-07-16T08:53:14.576Z,97968.66
2018-07-16T08:55:44.061Z,97973.37
2018-07-16T08:58:14.067Z,97979.81
2018-07-16T09:00:45.921Z,97986.62
2018-07-16T09:03:15.609Z,97987.75
2018-07-16T09:05:45.206Z,97983.18
2018-07-16T09:08:15.810Z,97985.39
2018-07-16T09:10:45.408Z,97979.84
2018-07-16T09:13:14.990Z,97979.00
2018-07-16T09:15:46.665Z,97977.03
2018-07-16T09:18:16.074Z,97975.70
2018-07-16T09:20:45.835Z,97971.45
2018-07-16T09:23:15.780Z,97974.70
2018-07-16T09:25:45.262Z,97975.13
2018-07-16T09:28:14.727Z,97974.03
2018-07-16T09:30:45.627Z,97978.38
2018-07-16T09:33:15.280Z,97976.22
2018-07-16T09:35:45.344Z,97982.52
2018-07-16T09:38:15.259Z,97970.67
2018-07-16T09:40:44.845Z,97971.47
2018-07-16T09:43:14.314Z,97980.57
2018-07-16T09:45:44.116Z,97985.52
2018-07-16T09:48:13.923Z,97986.72
2018-07-16T09:50:43.398Z,97978.04
2018-07-16T09:53:14.097Z,97979.58
2018-07-16T09:55:43.736Z,97984.68
2018-07-16T09:58:13.215Z,97980.39
2018-07-16T10:00:48.236Z,97968.97
2018-07-16T10:03:21.584Z,97972.64
2018-07-16T10:05:51.078Z,97972.84
2018-07-16T10:08:22.229Z,97974.66
2018-07-16T10:13:37.069Z,97967.49
2018-07-16T10:21:50.711Z,97962.48
2018-07-16T10:24:22.964Z,97966.88
2018-07-16T10:29:58.626Z,97961.35
2018-07-16T10:32:36.667Z,97963.14
2018-07-16T10:35:16.901Z,97959.60
2018-07-16T10:43:49.059Z,97955.06
2018-07-16T10:49:15.546Z,97942.87
2018-07-16T10:52:06.820Z,97953.44
2018-07-16T10:54:40.310Z,97959.64
2018-07-16T10:57:11.660Z,97935.06
2018-07-16T10:59:43.733Z,97936.75
2018-07-16T11:02:16.180Z,97939.11
2018-07-16T11:04:46.836Z,97938.62
2018-07-16T11:10:11.423Z,97916.33
2018-07-16T11:12:41.641Z,97929.31
2018-07-16T11:21:15.284Z,97918.91
2018-07-16T11:23:46.324Z,97918.03
2018-07-16T11:26:16.156Z,97922.92
2018-07-16T11:30:11.933Z,97909.66
2018-07-16T11:32:41.777Z,97901.43
2018-07-16T11:38:50.777Z,97893.95
2018-07-16T11:41:20.406Z,97890.52
2018-07-16T11:44:02.157Z,97891.97
2018-07-16T11:46:32.158Z,97891.38
2018-07-16T11:49:01.842Z,97889.81
2018-07-16T11:51:32.558Z,97894.90
2018-07-16T11:54:26.152Z,97895.86
2018-07-16T11:56:56.564Z,97893.39
2018-07-16T11:59:27.122Z,97883.96
2018-07-16T12:01:58.625Z,97883.23
2018-07-16T12:04:28.260Z,97874.33
2018-07-16T12:06:59.149Z,97867.21
2018-07-16T12:09:29.259Z,97868.52
2018-07-16T12:11:59.350Z,97868.55
2018-07-16T12:14:29.331Z,97862.95
2018-07-16T12:16:59.501Z,97862.06
2018-07-16T12:19:32.465Z,97860.29
2018-07-16T12:22:02.126Z,97859.94
2018-07-16T12:24:32.016Z,97862.56
2018-07-16T12:27:01.739Z,97862.64
2018-07-16T12:29:31.806Z,97863.54
2018-07-16T12:32:01.566Z,97852.58
2018-07-16T12:34:31.597Z,97850.71
2018-07-16T12:37:02.047Z,97852.52
2018-07-16T12:39:32.468Z,97850.47
2018-07-16T12:42:02.159Z,97850.56
2018-07-16T12:47:27.415Z,97837.19
2018-07-16T12:49:58.292Z,97827.88
2018-07-16T12:52:28.205Z,97837.50
2018-07-16T12:54:58.381Z,97829.52
2018-07-16T12:57:28.490Z,97824.33
2018-07-16T13:04:01.503Z,97827.45
2018-07-16T13:08:52.567Z,97818.53
2018-07-16T13:17:34.902Z,97800.95
2018-07-16T13:20:05.423Z,97804.47
2018-07-16T13:22:35.125Z,97817.78
2018-07-16T13:25:04.740Z,97814.64
2018-07-16T13:27:34.517Z,97817.78
2018-07-16T13:30:04.403Z,97812.83
2018-07-16T13:32:34.626Z,97812.77
2018-07-16T13:35:04.366Z,97807.09
2018-07-16T13:37:34.705Z,97813.69
2018-07-16T13:46:10.273Z,97809.97
2018-07-16T13:48:40.247Z,97800.86
2018-07-16T13:56:56.760Z,97806.55
2018-07-16T13:59:42.078Z,97807.30
2018-07-16T14:02:58.066Z,97801.80
2018-07-16T14:05:27.600Z,97782.19
2018-07-16T14:07:57.288Z,97782.20
2018-07-16T14:10:29.303Z,97771.62
2018-07-16T14:12:58.934Z,97772.03
2018-07-16T14:15:58.782Z,97775.52
2018-07-16T14:18:48.895Z,97776.78
2018-07-16T14:21:18.852Z,97774.80
2018-07-16T14:26:43.403Z,97769.20
2018-07-16T14:29:19.197Z,97763.18
2018-07-16T14:32:09.615Z,97753.40
2018-07-16T14:34:50.934Z,97749.03
2018-07-16T14:40:14.707Z,97749.30
2018-07-16T14:42:44.279Z,97762.16
2018-07-16T14:45:13.997Z,97765.48
2018-07-16T14:51:09.546Z,97737.16
2018-07-16T14:53:39.258Z,97736.26
2018-07-16T14:56:09.680Z,97744.13
2018-07-16T14:58:39.410Z,97737.30
2018-07-16T15:01:09.181Z,97732.06
2018-07-16T15:03:39.099Z,97731.16
2018-07-16T15:06:25.801Z,97731.02
2018-07-16T15:08:55.622Z,97734.29
2018-07-16T15:11:26.534Z,97726.39
2018-07-16T15:13:58.469Z,97730.22
2018-07-16T15:16:28.246Z,97731.34
2018-07-16T15:18:58.052Z,97741.39
2018-07-16T15:25:07.933Z,97745.69
2018-07-16T15:27:37.670Z,97744.23
2018-07-16T15:30:17.085Z,97739.90
2018-07-16T15:32:56.952Z,97735.30
2018-07-16T15:35:31.671Z,97736.51
2018-07-16T15:38:01.384Z,97742.12
2018-07-16T15:40:31.136Z,97740.62
2018-07-16T15:43:01.766Z,97735.23
2018-07-16T15:45:33.825Z,97730.91
2018-07-16T15:48:31.409Z,97733.11
2018-07-16T15:51:01.525Z,97715.63
2018-07-16T15:53:31.678Z,97711.50
2018-07-16T15:56:01.295Z,97705.05
2018-07-16T15:58:38.740Z,97699.12
2018-07-16T16:01:09.957Z,97694.06
2018-07-16T16:06:24.693Z,97692.15
2018-07-16T16:08:55.169Z,97696.92
2018-07-16T16:11:26.569Z,97690.44
2018-07-16T16:14:07.023Z,97689.55
2018-07-16T16:16:38.488Z,97679.23
2018-07-16T16:21:59.981Z,97677.41
2018-07-16T16:24:32.734Z,97680.24
2018-07-16T16:27:07.361Z,97676.44
2018-07-16T16:29:40.726Z,97677.73
2018-07-16T16:32:12.809Z,97668.66
2018-07-16T16:35:05.260Z,97666.52
2018-07-16T16:37:35.926Z,97659.66
2018-07-16T16:40:11.004Z,97664.29
2018-07-16T16:42:44.138Z,97666.67
2018-07-16T16:45:14.710Z,97667.86
2018-07-16T16:47:46.075Z,97665.34
2018-07-16T16:50:17.795Z,97661.45
2018-07-16T16:55:44.210Z,97660.36
2018-07-16T16:58:35.821Z,97584.58
2018-07-16T17:01:27.743Z,97652.29
2018-07-16T17:13:30.682Z,97652.12
2018-07-16T17:16:18.541Z,97653.78
2018-07-16T17:18:51.532Z,97653.02
2018-07-16T17:21:22.125Z,97649.42
2018-07-16T17:24:55.931Z,97653.34
2018-07-16T17:27:36.185Z,97657.70
2018-07-16T17:30:07.393Z,97650.11
2018-07-16T17:32:49.695Z,97650.11
2018-07-16T17:35:19.977Z,97654.36
2018-07-16T17:37:50.238Z,97649.82
2018-07-16T17:40:23.821Z,97654.45
2018-07-16T17:45:48.742Z,97651.25
2018-07-16T17:48:19.470Z,97661.34
2018-07-16T17:50:49.320Z,97655.45
2018-07-16T17:53:36.205Z,97657.51
2018-07-16T17:56:06.382Z,97661.42
2018-07-16T17:58:44.310Z,97663.58
2018-07-16T18:01:14.623Z,97660.39
2018-07-16T18:03:44.215Z,97659.16
2018-07-16T18:06:14.281Z,97668.13
2018-07-16T18:08:48.960Z,97665.43
2018-07-16T18:11:18.820Z,97665.24
2018-07-16T18:13:48.677Z,97669.95
2018-07-16T18:16:20.466Z,97666.70
2018-07-16T18:18:50.006Z,97681.23
2018-07-16T18:21:23.812Z,97670.70
2018-07-16T18:23:59.295Z,97674.73
2018-07-16T18:26:29.684Z,97678.23
2018-07-16T18:28:59.765Z,97678.13
2018-07-16T18:31:29.580Z,97674.54
2018-07-16T18:33:59.661Z,97681.84
2018-07-16T18:36:29.104Z,97687.75
2018-07-16T18:39:15.015Z,97695.61
2018-07-16T18:52:23.976Z,97699.08
2018-07-16T18:55:06.417Z,97707.47
